createdAt,value
2023-01-27T00:01:45.453Z,100703.00
2023-01-27T00:04:19.345Z,100725.00
2023-01-27T00:06:53.096Z,100694.00
2023-01-27T00:09:26.414Z,100696.00
2023-01-27T00:12:16.842Z,100699.00
2023-01-27T00:14:49.940Z,100674.00
2023-01-27T00:17:22.896Z,100699.00
2023-01-27T00:19:55.806Z,100699.00
2023-01-27T00:22:46.091Z,100712.00
2023-01-27T00:25:18.964Z,100707.00
2023-01-27T00:27:51.914Z,100692.00
2023-01-27T00:30:25.678Z,100696.00
2023-01-27T00:33:15.388Z,100690.00
2023-01-27T00:35:50.736Z,100710.00
2023-01-27T00:38:24.029Z,100677.00
2023-01-27T00:41:14.172Z,100666.00
2023-01-27T00:43:47.144Z,100653.00
2023-01-27T00:46:20.988Z,100648.00
2023-01-27T00:48:54.283Z,100657.00
2023-01-27T00:51:27.411Z,100636.00
2023-01-27T00:54:01.250Z,100650.00
2023-01-27T00:56:34.107Z,100645.00
2023-01-27T00:59:07.148Z,100621.00
2023-01-27T01:01:42.740Z,100613.00
2023-01-27T01:04:16.566Z,100609.00
2023-01-27T01:06:49.573Z,100630.00
2023-01-27T01:09:22.420Z,100578.00
2023-01-27T01:11:55.346Z,100613.00
2023-01-27T01:14:28.421Z,100605.00
2023-01-27T01:17:01.527Z,100617.00
2023-01-27T01:19:35.201Z,100593.00
2023-01-27T01:22:08.300Z,100624.00
2023-01-27T01:24:41.275Z,100619.00
2023-01-27T01:27:15.222Z,100615.00
2023-01-27T01:29:52.640Z,100615.00
2023-01-27T01:32:25.581Z,100625.00
2023-01-27T01:34:58.687Z,100618.00
2023-01-27T01:37:31.724Z,100616.00
2023-01-27T01:40:04.635Z,100611.00
2023-01-27T01:43:00.557Z,100601.00
2023-01-27T01:45:41.605Z,100599.00
2023-01-27T01:48:22.890Z,100630.00
2023-01-27T01:50:57.908Z,100623.00
2023-01-27T01:53:33.440Z,100608.00
2023-01-27T01:56:08.646Z,100586.00
2023-01-27T02:01:15.678Z,100594.00
2023-01-27T02:03:51.205Z,100592.00
2023-01-27T02:06:24.661Z,100600.00
2023-01-27T02:08:58.785Z,100592.00
2023-01-27T02:11:32.084Z,100592.00
2023-01-27T02:14:06.384Z,100591.00
2023-01-27T02:16:39.863Z,100578.00
2023-01-27T02:19:14.811Z,100570.00
2023-01-27T02:21:48.859Z,100577.00
2023-01-27T02:24:23.430Z,100576.00
2023-01-27T02:26:56.677Z,100568.00
2023-01-27T02:29:30.571Z,100545.00
2023-01-27T02:32:07.909Z,100549.00
2023-01-27T02:34:44.386Z,100537.00
2023-01-27T02:37:18.309Z,100544.00
2023-01-27T02:39:53.030Z,100543.00
2023-01-27T02:42:26.072Z,100550.00
2023-01-27T02:44:59.125Z,100551.00
2023-01-27T02:47:32.149Z,100544.00
2023-01-27T02:50:05.241Z,100539.00
2023-01-27T02:52:38.323Z,100536.00
2023-01-27T02:55:12.463Z,100543.00
2023-01-27T02:57:45.702Z,100526.00
2023-01-27T03:00:18.782Z,100527.00
2023-01-27T03:02:52.226Z,100523.00
2023-01-27T03:05:25.594Z,100542.00
2023-01-27T03:07:58.379Z,100519.00
2023-01-27T03:10:31.156Z,100513.00
2023-01-27T03:13:04.183Z,100509.00
2023-01-27T03:15:54.665Z,100521.00
2023-01-27T03:18:27.784Z,100522.00
2023-01-27T03:21:05.407Z,100523.00
2023-01-27T03:23:40.573Z,100507.00
2023-01-27T03:26:13.410Z,100515.00
2023-01-27T03:28:47.699Z,100530.00
2023-01-27T03:31:24.158Z,100522.00
2023-01-27T03:34:01.990Z,100533.00
2023-01-27T03:36:52.251Z,100527.00
2023-01-27T03:39:42.472Z,100524.00
2023-01-27T03:42:32.764Z,100530.00
2023-01-27T03:45:23.166Z,100531.00
2023-01-27T03:47:56.397Z,100509.00
2023-01-27T03:50:30.459Z,100517.00
2023-01-27T03:53:06.966Z,100510.00
2023-01-27T03:55:40.356Z,100505.00
2023-01-27T03:58:24.391Z,100508.00
2023-01-27T04:01:05.342Z,100496.00
2023-01-27T04:03:57.061Z,100494.00
2023-01-27T04:06:49.301Z,100488.00
2023-01-27T04:09:27.180Z,100468.00
2023-01-27T04:12:05.058Z,100457.00
2023-01-27T04:14:43.632Z,100457.00
2023-01-27T04:17:21.162Z,100438.00
2023-01-27T04:19:54.051Z,100407.00
2023-01-27T04:22:26.920Z,100412.00
2023-01-27T04:24:59.843Z,100419.00
2023-01-27T04:27:32.878Z,100416.00
2023-01-27T04:30:06.815Z,100441.00
2023-01-27T04:32:39.695Z,100459.00
2023-01-27T04:35:13.262Z,100449.00
2023-01-27T04:37:46.359Z,100444.00
2023-01-27T04:40:19.523Z,100445.00
2023-01-27T04:42:52.706Z,100432.00
2023-01-27T04:45:25.816Z,100422.00
2023-01-27T04:47:58.915Z,100418.00
2023-01-27T04:50:31.971Z,100397.00
2023-01-27T04:53:04.760Z,100404.00
2023-01-27T04:55:37.719Z,100390.00
2023-01-27T04:58:10.912Z,100380.00
2023-01-27T05:00:43.998Z,100368.00
2023-01-27T05:03:17.136Z,100374.00
2023-01-27T05:05:50.265Z,100377.00
2023-01-27T05:08:23.479Z,100387.00
2023-01-27T05:10:56.363Z,100376.00
2023-01-27T05:13:29.237Z,100364.00
2023-01-27T05:16:19.294Z,100371.00
2023-01-27T05:18:53.790Z,100349.00
2023-01-27T05:21:29.359Z,100353.00
2023-01-27T05:24:04.500Z,100365.00
2023-01-27T05:26:37.388Z,100335.00
2023-01-27T05:29:10.310Z,100336.00
2023-01-27T05:31:46.659Z,100339.00
2023-01-27T05:34:19.780Z,100355.00
2023-01-27T05:36:53.520Z,100354.00
2023-01-27T05:39:26.376Z,100354.00
2023-01-27T05:41:59.424Z,100366.00
2023-01-27T05:44:32.382Z,100378.00
2023-01-27T05:47:05.401Z,100364.00
2023-01-27T05:49:38.869Z,100359.00
2023-01-27T05:52:11.786Z,100356.00
2023-01-27T05:54:44.869Z,100342.00
2023-01-27T05:57:17.775Z,100356.00
2023-01-27T05:59:50.612Z,100370.00
2023-01-27T06:02:23.700Z,100384.00
2023-01-27T06:04:56.699Z,100384.00
2023-01-27T06:07:30.344Z,100377.00
2023-01-27T06:10:03.733Z,100375.00
2023-01-27T06:12:37.366Z,100335.00
2023-01-27T06:15:11.134Z,100367.00
2023-01-27T06:17:44.251Z,100375.00
2023-01-27T06:20:17.794Z,100393.00
2023-01-27T06:22:52.031Z,100383.00
2023-01-27T06:25:24.934Z,100370.00
2023-01-27T06:27:58.983Z,100374.00
2023-01-27T06:30:31.977Z,100364.00
2023-01-27T06:33:04.912Z,100344.00
2023-01-27T06:35:38.840Z,100352.00
2023-01-27T06:38:14.644Z,100365.00
2023-01-27T06:40:47.485Z,100339.00
2023-01-27T06:43:20.334Z,100336.00
2023-01-27T06:46:00.330Z,100319.00
2023-01-27T06:48:32.125Z,100298.00
2023-01-27T06:51:04.897Z,100335.00
2023-01-27T06:53:38.858Z,100321.00
2023-01-27T06:56:12.043Z,100305.00
2023-01-27T06:58:45.057Z,100320.00
2023-01-27T07:01:18.034Z,100314.00
2023-01-27T07:03:51.130Z,100297.00
2023-01-27T07:06:24.384Z,100273.00
2023-01-27T07:08:57.294Z,100296.00
2023-01-27T07:11:30.283Z,100309.00
2023-01-27T07:14:03.297Z,100287.00
2023-01-27T07:16:36.237Z,100296.00
2023-01-27T07:19:09.382Z,100287.00
2023-01-27T07:21:42.193Z,100277.00
2023-01-27T07:24:15.587Z,100281.00
2023-01-27T07:26:49.418Z,100271.00
2023-01-27T07:29:22.421Z,100281.00
2023-01-27T07:31:55.799Z,100273.00
2023-01-27T07:34:28.570Z,100257.00
2023-01-27T07:37:01.461Z,100282.00
2023-01-27T07:39:35.233Z,100233.00
2023-01-27T07:42:08.530Z,100277.00
2023-01-27T07:44:41.681Z,100257.00
2023-01-27T07:47:14.685Z,100239.00
2023-01-27T07:49:49.798Z,100259.00
2023-01-27T07:52:22.905Z,100277.00
2023-01-27T07:54:55.770Z,100298.00
2023-01-27T07:57:28.790Z,100301.00
2023-01-27T08:00:01.644Z,100291.00
2023-01-27T08:02:34.747Z,100309.00
2023-01-27T08:05:07.951Z,100296.00
2023-01-27T08:07:41.503Z,100303.00
2023-01-27T08:10:15.253Z,100303.00
2023-01-27T08:12:48.224Z,100299.00
2023-01-27T08:15:21.166Z,100322.00
2023-01-27T08:18:00.822Z,100337.00
2023-01-27T08:20:34.299Z,100336.00
2023-01-27T08:23:07.169Z,100369.00
2023-01-27T08:25:39.907Z,100376.00
2023-01-27T08:28:15.096Z,100378.00
2023-01-27T08:30:48.056Z,100399.00
2023-01-27T08:33:21.445Z,100406.00
2023-01-27T08:35:54.680Z,100416.00
2023-01-27T08:38:27.489Z,100417.00
2023-01-27T08:41:00.501Z,100418.00
2023-01-27T08:43:33.367Z,100426.00
2023-01-27T08:46:06.439Z,100427.00
2023-01-27T08:48:40.187Z,100418.00
2023-01-27T08:51:14.741Z,100430.00
2023-01-27T08:53:47.579Z,100420.00
2023-01-27T08:56:23.119Z,100417.00
2023-01-27T08:58:56.601Z,100412.00
2023-01-27T09:01:30.000Z,100426.00
2023-01-27T09:04:03.096Z,100437.00
2023-01-27T09:06:36.266Z,100430.00
2023-01-27T09:09:12.747Z,100447.00
2023-01-27T09:11:47.071Z,100427.00
2023-01-27T09:14:20.655Z,100443.00
2023-01-27T09:16:53.396Z,100442.00
2023-01-27T09:19:26.379Z,100441.00
2023-01-27T09:21:59.798Z,100429.00
2023-01-27T09:24:32.723Z,100441.00
2023-01-27T09:27:05.819Z,100440.00
2023-01-27T09:29:38.880Z,100441.00
2023-01-27T09:32:13.014Z,100430.00
2023-01-27T09:34:45.980Z,100429.00
2023-01-27T09:37:19.390Z,100425.00
2023-01-27T09:39:56.903Z,100422.00
2023-01-27T09:42:55.993Z,100407.00
2023-01-27T09:45:36.905Z,100410.00
2023-01-27T09:48:17.774Z,100408.00
2023-01-27T09:51:07.663Z,100403.00
2023-01-27T09:53:45.133Z,100396.00
2023-01-27T09:56:28.777Z,100399.00
2023-01-27T09:59:13.822Z,100395.00
2023-01-27T10:02:13.172Z,100366.00
2023-01-27T10:04:48.199Z,100366.00
2023-01-27T10:07:39.941Z,100386.00
2023-01-27T10:10:31.484Z,100364.00
2023-01-27T10:13:09.831Z,100344.00
2023-01-27T10:16:16.458Z,100344.00
2023-01-27T10:19:12.669Z,100317.00
2023-01-27T10:21:50.420Z,100321.00
2023-01-27T10:24:48.009Z,100291.00
2023-01-27T10:27:38.127Z,100271.00
2023-01-27T10:30:31.029Z,100250.00
2023-01-27T10:33:14.720Z,100250.00
2023-01-27T10:36:04.181Z,100281.00
2023-01-27T10:38:48.310Z,100277.00
2023-01-27T10:41:26.198Z,100275.00
2023-01-27T10:44:04.360Z,100284.00
2023-01-27T10:46:51.514Z,100283.00
2023-01-27T10:49:26.373Z,100280.00
2023-01-27T10:52:10.427Z,100266.00
2023-01-27T10:55:04.053Z,100276.00
2023-01-27T10:57:39.239Z,100270.00
2023-01-27T11:03:02.568Z,100277.00
2023-01-27T11:05:43.353Z,100285.00
2023-01-27T11:08:21.351Z,100296.00
2023-01-27T11:11:16.200Z,100289.00
2023-01-27T11:13:49.622Z,100293.00
2023-01-27T11:16:23.135Z,100315.00
2023-01-27T11:18:57.779Z,100313.00
2023-01-27T11:21:32.589Z,100310.00
2023-01-27T11:24:10.449Z,100304.00
2023-01-27T11:26:53.459Z,100310.00
2023-01-27T11:29:37.209Z,100317.00
2023-01-27T11:32:34.409Z,100306.00
2023-01-27T11:35:15.150Z,100301.00
2023-01-27T11:38:09.879Z,100318.00
2023-01-27T11:40:36.285Z,100319.00
2023-01-27T11:43:09.821Z,100298.00
2023-01-27T11:45:42.993Z,100298.00
2023-01-27T11:48:18.092Z,100291.00
2023-01-27T11:50:50.970Z,100296.00
2023-01-27T11:53:28.391Z,100302.00
2023-01-27T11:56:06.410Z,100302.00
2023-01-27T11:58:55.683Z,100297.00
2023-01-27T12:01:31.222Z,100295.00
2023-01-27T12:04:06.341Z,100302.00
2023-01-27T12:06:43.972Z,100309.00
2023-01-27T12:09:38.158Z,100326.00
2023-01-27T12:12:19.538Z,100308.00
2023-01-27T12:15:04.733Z,100302.00
2023-01-27T12:17:45.210Z,100325.00
2023-01-27T12:20:31.847Z,100317.00
2023-01-27T12:23:24.824Z,100316.00
2023-01-27T12:26:05.576Z,100307.00
2023-01-27T12:28:43.392Z,100321.00
2023-01-27T12:31:24.448Z,100319.00
2023-01-27T12:34:08.723Z,100310.00
2023-01-27T12:36:46.576Z,100289.00
2023-01-27T12:39:45.460Z,100302.00
2023-01-27T12:42:42.749Z,100294.00
2023-01-27T12:45:32.984Z,100288.00
2023-01-27T12:48:07.486Z,100285.00
2023-01-27T12:50:42.552Z,100286.00
2023-01-27T12:53:17.493Z,100289.00
2023-01-27T12:56:10.187Z,100289.00
2023-01-27T12:59:00.294Z,100284.00
2023-01-27T13:01:42.085Z,100286.00
2023-01-27T13:04:25.596Z,100279.00
2023-01-27T13:07:09.546Z,100282.00
2023-01-27T13:09:53.438Z,100281.00
2023-01-27T13:12:29.927Z,100279.00
2023-01-27T13:15:11.005Z,100287.00
2023-01-27T13:17:54.704Z,100279.00
2023-01-27T13:20:38.769Z,100286.00
2023-01-27T13:23:31.569Z,100270.00
2023-01-27T13:26:13.312Z,100279.00
2023-01-27T13:28:52.602Z,100274.00
2023-01-27T13:31:52.670Z,100262.00
2023-01-27T13:34:36.345Z,100270.00
2023-01-27T13:37:16.885Z,100272.00
2023-01-27T13:40:06.821Z,100250.00
2023-01-27T13:43:15.111Z,100251.00
2023-01-27T13:46:01.829Z,100245.00
2023-01-27T13:48:39.360Z,100247.00
2023-01-27T13:51:26.143Z,100228.00
2023-01-27T13:54:03.762Z,100217.00
2023-01-27T13:56:51.839Z,100216.00
2023-01-27T13:59:59.387Z,100213.00
2023-01-27T14:02:50.495Z,100194.00
2023-01-27T14:05:45.445Z,100184.00
2023-01-27T14:08:29.774Z,100180.00
2023-01-27T14:11:33.249Z,100187.00
2023-01-27T14:14:43.616Z,100176.00
2023-01-27T14:17:28.183Z,100184.00
2023-01-27T14:20:02.874Z,100189.00
2023-01-27T14:22:47.276Z,100192.00
2023-01-27T14:25:28.516Z,100174.00
2023-01-27T14:28:10.016Z,100179.00
2023-01-27T14:30:51.187Z,100178.00
2023-01-27T14:33:42.298Z,100166.00
2023-01-27T14:36:16.545Z,100164.00
2023-01-27T14:39:00.370Z,100168.00
2023-01-27T14:41:35.187Z,100174.00
2023-01-27T14:44:33.927Z,100174.00
2023-01-27T14:47:25.872Z,100173.00
2023-01-27T14:50:09.752Z,100176.00
2023-01-27T14:52:50.173Z,100180.00
2023-01-27T14:55:43.034Z,100180.00
2023-01-27T14:58:17.860Z,100185.00
2023-01-27T15:01:10.493Z,100184.00
2023-01-27T15:03:50.899Z,100175.00
2023-01-27T15:06:49.348Z,100179.00
2023-01-27T15:09:43.945Z,100182.00
2023-01-27T15:12:37.971Z,100179.00
2023-01-27T15:15:44.308Z,100185.00
2023-01-27T15:18:25.672Z,100176.00
2023-01-27T15:21:16.675Z,100190.00
2023-01-27T15:24:07.743Z,100183.00
2023-01-27T15:26:41.968Z,100184.00
2023-01-27T15:29:16.529Z,100180.00
2023-01-27T15:31:51.433Z,100193.00
2023-01-27T15:34:28.402Z,100187.00
2023-01-27T15:37:15.635Z,100182.00
2023-01-27T15:40:15.906Z,100186.00
2023-01-27T15:42:56.363Z,100183.00
2023-01-27T15:45:40.296Z,100187.00
2023-01-27T15:48:15.202Z,100181.00
2023-01-27T15:51:01.509Z,100183.00
2023-01-27T15:53:48.540Z,100178.00
2023-01-27T15:56:21.534Z,100192.00
2023-01-27T15:59:05.680Z,100192.00
2023-01-27T16:01:39.579Z,100198.00
2023-01-27T16:04:23.276Z,100202.00
2023-01-27T16:07:07.052Z,100209.00
2023-01-27T16:10:11.193Z,100212.00
2023-01-27T16:12:48.981Z,100223.00
2023-01-27T16:15:27.162Z,100226.00
2023-01-27T16:18:15.249Z,100228.00
2023-01-27T16:21:02.678Z,100230.00
2023-01-27T16:23:53.177Z,100231.00
2023-01-27T16:26:40.728Z,100245.00
2023-01-27T16:29:41.724Z,100254.00
2023-01-27T16:32:23.013Z,100254.00
2023-01-27T16:35:04.288Z,100257.00
2023-01-27T16:37:39.428Z,100271.00
2023-01-27T16:40:23.873Z,100262.00
2023-01-27T16:43:01.417Z,100264.00
2023-01-27T16:45:36.434Z,100270.00
2023-01-27T16:48:11.552Z,100267.00
2023-01-27T16:50:45.770Z,100275.00
2023-01-27T16:53:26.328Z,100267.00
2023-01-27T16:56:04.244Z,100273.00
2023-01-27T16:58:46.610Z,100265.00
2023-01-27T17:01:14.769Z,100278.00
2023-01-27T17:03:48.781Z,100272.00
2023-01-27T17:06:23.939Z,100269.00
2023-01-27T17:08:56.804Z,100268.00
2023-01-27T17:11:34.928Z,100276.00
2023-01-27T17:14:21.302Z,100268.00
2023-01-27T17:16:55.039Z,100262.00
2023-01-27T17:19:30.058Z,100264.00
2023-01-27T17:22:05.168Z,100267.00
2023-01-27T17:24:39.849Z,100259.00
2023-01-27T17:27:36.193Z,100264.00
2023-01-27T17:30:24.172Z,100269.00
2023-01-27T17:33:05.133Z,100265.00
2023-01-27T17:35:42.477Z,100269.00
2023-01-27T17:38:27.770Z,100265.00
2023-01-27T17:41:00.628Z,100261.00
2023-01-27T17:43:41.362Z,100261.00
2023-01-27T17:46:17.380Z,100264.00
2023-01-27T17:49:00.854Z,100261.00
2023-01-27T17:51:42.274Z,100274.00
2023-01-27T17:54:34.264Z,100285.00
2023-01-27T17:57:36.727Z,100275.00
2023-01-27T18:00:14.579Z,100273.00
2023-01-27T18:02:57.924Z,100278.00
2023-01-27T18:05:32.677Z,100280.00
2023-01-27T18:08:06.943Z,100287.00
2023-01-27T18:10:41.629Z,100288.00
2023-01-27T18:13:25.071Z,100294.00
2023-01-27T18:16:02.790Z,100292.00
2023-01-27T18:18:37.905Z,100286.00
2023-01-27T18:21:15.769Z,100289.00
2023-01-27T18:23:57.594Z,100285.00
2023-01-27T18:26:35.455Z,100296.00
2023-01-27T18:29:31.141Z,100290.00
2023-01-27T18:32:15.325Z,100293.00
2023-01-27T18:34:53.255Z,100296.00
2023-01-27T18:37:39.340Z,100302.00
2023-01-27T18:40:23.697Z,100291.00
2023-01-27T18:43:00.246Z,100294.00
2023-01-27T18:45:33.256Z,100301.00
2023-01-27T18:48:06.104Z,100309.00
2023-01-27T18:50:40.939Z,100298.00
2023-01-27T18:53:21.410Z,100301.00
2023-01-27T18:55:54.550Z,100306.00
2023-01-27T18:58:27.488Z,100303.00
2023-01-27T19:01:01.571Z,100306.00
2023-01-27T19:03:35.959Z,100310.00
2023-01-27T19:06:15.880Z,100312.00
2023-01-27T19:08:50.203Z,100311.00
2023-01-27T19:11:23.121Z,100303.00
2023-01-27T19:13:56.019Z,100297.00
2023-01-27T19:16:32.382Z,100299.00
2023-01-27T19:19:06.566Z,100298.00
2023-01-27T19:21:39.431Z,100300.00
2023-01-27T19:24:13.757Z,100301.00
2023-01-27T19:26:47.747Z,100304.00
2023-01-27T19:29:20.921Z,100309.00
2023-01-27T19:31:53.865Z,100309.00
2023-01-27T19:34:26.720Z,100311.00
2023-01-27T19:36:59.657Z,100307.00
2023-01-27T19:39:32.434Z,100315.00
2023-01-27T19:42:05.381Z,100314.00
2023-01-27T19:44:38.507Z,100331.00
2023-01-27T19:47:15.374Z,100319.00
2023-01-27T19:49:48.254Z,100335.00
2023-01-27T19:52:21.525Z,100334.00
2023-01-27T19:54:54.262Z,100340.00
2023-01-27T19:57:28.491Z,100341.00
2023-01-27T20:00:01.313Z,100347.00
2023-01-27T20:02:34.287Z,100339.00
2023-01-27T20:05:07.157Z,100340.00
2023-01-27T20:07:39.963Z,100335.00
2023-01-27T20:10:14.965Z,100341.00
2023-01-27T20:12:48.026Z,100347.00
2023-01-27T20:15:21.675Z,100342.00
2023-01-27T20:17:54.993Z,100350.00
2023-01-27T20:20:28.881Z,100349.00
2023-01-27T20:23:02.002Z,100356.00
2023-01-27T20:25:34.865Z,100354.00
2023-01-27T20:28:07.840Z,100346.00
2023-01-27T20:30:40.821Z,100356.00
2023-01-27T20:33:16.268Z,100358.00
2023-01-27T20:35:49.113Z,100342.00
2023-01-27T20:38:21.862Z,100349.00
2023-01-27T20:40:55.005Z,100358.00
2023-01-27T20:43:35.236Z,100349.00
2023-01-27T20:46:04.086Z,100363.00
2023-01-27T20:48:37.332Z,100347.00
2023-01-27T20:51:12.827Z,100351.00
2023-01-27T20:53:47.696Z,100360.00
2023-01-27T20:56:22.273Z,100355.00
2023-01-27T20:58:56.156Z,100350.00
2023-01-27T21:01:29.421Z,100346.00
2023-01-27T21:04:02.592Z,100352.00
2023-01-27T21:06:35.588Z,100344.00
2023-01-27T21:09:08.805Z,100343.00
2023-01-27T21:11:41.877Z,100338.00
2023-01-27T21:14:15.098Z,100346.00
2023-01-27T21:16:48.399Z,100342.00
2023-01-27T21:19:21.526Z,100352.00
2023-01-27T21:21:55.206Z,100351.00
2023-01-27T21:24:28.169Z,100356.00
2023-01-27T21:27:01.197Z,100365.00
2023-01-27T21:29:34.137Z,100368.00
2023-01-27T21:32:06.975Z,100354.00
2023-01-27T21:34:39.830Z,100359.00
2023-01-27T21:37:15.152Z,100363.00
2023-01-27T21:39:48.113Z,100365.00
2023-01-27T21:42:26.250Z,100382.00
2023-01-27T21:45:18.006Z,100368.00
2023-01-27T21:47:51.841Z,100360.00
2023-01-27T21:50:24.700Z,100364.00
2023-01-27T21:55:47.931Z,100369.00
2023-01-27T21:58:20.873Z,100357.00
2023-01-27T22:00:53.922Z,100371.00
2023-01-27T22:03:26.908Z,100361.00
2023-01-27T22:05:59.754Z,100359.00
2023-01-27T22:08:32.761Z,100367.00
2023-01-27T22:11:12.283Z,100372.00
2023-01-27T22:13:44.931Z,100368.00
2023-01-27T22:16:21.965Z,100373.00
2023-01-27T22:18:59.381Z,100372.00
2023-01-27T22:21:32.498Z,100378.00
2023-01-27T22:24:08.813Z,100366.00
2023-01-27T22:26:41.681Z,100370.00
2023-01-27T22:29:15.100Z,100385.00
2023-01-27T22:31:47.982Z,100381.00
2023-01-27T22:34:21.221Z,100383.00
2023-01-27T22:36:54.149Z,100379.00
2023-01-27T22:39:27.103Z,100387.00
2023-01-27T22:42:00.027Z,100383.00
2023-01-27T22:44:33.078Z,100384.00
2023-01-27T22:47:06.127Z,100383.00
2023-01-27T22:49:39.047Z,100383.00
2023-01-27T22:52:11.936Z,100395.00
2023-01-27T22:54:44.931Z,100399.00
2023-01-27T22:57:17.931Z,100385.00
2023-01-27T22:59:50.692Z,100384.00
2023-01-27T23:02:28.349Z,100385.00
2023-01-27T23:05:01.880Z,100380.00
2023-01-27T23:07:34.705Z,100381.00
2023-01-27T23:10:07.532Z,100387.00
2023-01-27T23:12:40.792Z,100396.00
2023-01-27T23:15:15.031Z,100388.00
2023-01-27T23:17:48.183Z,100385.00
2023-01-27T23:20:21.344Z,100393.00
2023-01-27T23:22:55.316Z,100394.00
2023-01-27T23:25:28.420Z,100395.00
2023-01-27T23:28:01.698Z,100385.00
2023-01-27T23:30:34.705Z,100392.00
2023-01-27T23:33:07.567Z,100388.00
2023-01-27T23:35:40.547Z,100393.00
2023-01-27T23:38:30.415Z,100384.00
2023-01-27T23:40:47.793Z,100388.00
2023-01-27T23:43:23.340Z,100403.00
2023-01-27T23:45:56.563Z,100394.00
2023-01-27T23:48:29.589Z,100392.00
2023-01-27T23:51:02.547Z,100400.00
2023-01-27T23:53:35.813Z,100401.00
2023-01-27T23:56:09.441Z,100402.00
2023-01-27T23:58:42.320Z,100394.00
